createdAt,value
2017-06-29T00:00:13.492Z,0
2017-06-29T00:01:14.154Z,0
2017-06-29T00:02:14.768Z,0
2017-06-29T00:03:15.378Z,0
2017-06-29T00:04:15.990Z,0
2017-06-29T00:05:16.626Z,0
2017-06-29T00:06:17.233Z,0
2017-06-29T00:07:17.842Z,0
2017-06-29T00:08:18.453Z,0
2017-06-29T00:09:19.065Z,0
2017-06-29T00:10:19.682Z,0
2017-06-29T00:11:20.340Z,0
2017-06-29T00:12:20.959Z,0
2017-06-29T00:13:21.568Z,0
2017-06-29T00:14:22.185Z,0
2017-06-29T00:15:22.795Z,0
2017-06-29T00:16:23.460Z,0
2017-06-29T00:17:24.076Z,0
2017-06-29T00:18:24.686Z,0
2017-06-29T00:19:25.298Z,0
2017-06-29T00:20:25.915Z,0
2017-06-29T00:21:26.580Z,0
2017-06-29T00:22:27.188Z,0
2017-06-29T00:23:27.801Z,0
2017-06-29T00:24:28.414Z,0
2017-06-29T00:25:29.061Z,0
2017-06-29T00:26:29.724Z,0
2017-06-29T00:27:30.370Z,0
2017-06-29T00:28:30.983Z,0
2017-06-29T00:29:31.594Z,0
2017-06-29T00:30:32.239Z,0
2017-06-29T00:31:32.907Z,0
2017-06-29T00:32:33.517Z,0
2017-06-29T00:33:34.153Z,0
2017-06-29T00:34:34.751Z,0
2017-06-29T00:35:35.364Z,0
2017-06-29T00:36:36.031Z,0
2017-06-29T00:37:36.640Z,0
2017-06-29T00:38:37.252Z,0
2017-06-29T00:39:37.865Z,0
2017-06-29T00:40:38.481Z,0
2017-06-29T00:41:39.147Z,0
2017-06-29T00:42:39.753Z,0
2017-06-29T00:43:40.396Z,0
2017-06-29T00:44:40.993Z,0
2017-06-29T00:45:41.605Z,0
2017-06-29T00:46:42.265Z,0
2017-06-29T00:47:42.904Z,0
2017-06-29T00:48:43.507Z,0
2017-06-29T00:49:44.121Z,0
2017-06-29T00:50:44.730Z,0
2017-06-29T00:51:45.398Z,0
2017-06-29T00:52:46.006Z,0
2017-06-29T00:53:46.617Z,0
2017-06-29T00:54:47.230Z,0
2017-06-29T00:55:47.843Z,0
2017-06-29T00:56:48.504Z,0
2017-06-29T00:57:49.124Z,0
2017-06-29T00:58:49.775Z,0
2017-06-29T00:59:50.421Z,0
2017-06-29T01:00:51.038Z,0
2017-06-29T01:01:51.697Z,0
2017-06-29T01:02:52.311Z,0
2017-06-29T01:03:52.934Z,0
2017-06-29T01:04:53.545Z,0
2017-06-29T01:05:54.157Z,0
2017-06-29T01:06:54.823Z,0
2017-06-29T01:07:55.433Z,0
2017-06-29T01:08:56.047Z,0
2017-06-29T01:09:56.658Z,0
2017-06-29T01:10:57.296Z,0
2017-06-29T01:11:57.972Z,0
2017-06-29T01:12:58.571Z,0
2017-06-29T01:13:59.206Z,0
2017-06-29T01:14:59.807Z,0
2017-06-29T01:16:00.421Z,0
2017-06-29T01:17:01.110Z,0
2017-06-29T01:18:01.708Z,0
2017-06-29T01:19:02.320Z,0
2017-06-29T01:20:02.933Z,0
2017-06-29T01:21:03.551Z,0
2017-06-29T01:22:04.208Z,0
2017-06-29T01:23:04.851Z,0
2017-06-29T01:24:05.464Z,0
2017-06-29T01:25:06.076Z,0
2017-06-29T01:26:06.689Z,0
2017-06-29T01:27:07.351Z,0
2017-06-29T01:28:07.969Z,0
2017-06-29T01:29:08.578Z,0
2017-06-29T01:30:09.189Z,0
2017-06-29T01:31:09.830Z,0
2017-06-29T01:32:10.477Z,0
2017-06-29T01:33:11.090Z,0
2017-06-29T01:34:11.703Z,0
2017-06-29T01:35:12.315Z,0
2017-06-29T01:36:12.928Z,0
2017-06-29T01:37:13.615Z,0
2017-06-29T01:38:14.241Z,0
2017-06-29T01:39:14.838Z,0
2017-06-29T01:40:15.450Z,0
2017-06-29T01:41:16.096Z,0
2017-06-29T01:42:16.791Z,0
2017-06-29T01:43:17.435Z,0
2017-06-29T01:44:18.080Z,0
2017-06-29T01:45:18.694Z,0
2017-06-29T01:46:19.305Z,0
2017-06-29T01:47:19.966Z,0
2017-06-29T01:48:20.580Z,0
2017-06-29T01:49:21.192Z,0
2017-06-29T01:50:21.803Z,0
2017-06-29T01:51:22.447Z,0
2017-06-29T01:52:23.093Z,0
2017-06-29T01:53:23.707Z,0
2017-06-29T01:54:24.323Z,0
2017-06-29T01:55:24.939Z,0
2017-06-29T01:56:25.553Z,0
2017-06-29T01:57:26.211Z,0
2017-06-29T01:58:26.825Z,0
2017-06-29T01:59:27.437Z,0
2017-06-29T02:00:28.091Z,0
2017-06-29T02:01:28.699Z,0
2017-06-29T02:02:29.361Z,0
2017-06-29T02:03:29.971Z,0
2017-06-29T02:04:30.588Z,0
2017-06-29T02:05:31.198Z,0
2017-06-29T02:06:31.876Z,0
2017-06-29T02:07:32.520Z,0
2017-06-29T02:08:33.132Z,0
2017-06-29T02:09:33.743Z,0
2017-06-29T02:10:34.354Z,0
2017-06-29T02:11:34.965Z,0
2017-06-29T02:12:35.655Z,0
2017-06-29T02:13:36.253Z,0
2017-06-29T02:14:36.890Z,0
2017-06-29T02:15:37.490Z,0
2017-06-29T02:16:38.135Z,0
2017-06-29T02:17:38.779Z,0
2017-06-29T02:18:39.415Z,0
2017-06-29T02:19:40.018Z,0
2017-06-29T02:20:40.630Z,0
2017-06-29T02:21:41.240Z,0
2017-06-29T02:22:41.901Z,0
2017-06-29T02:23:42.521Z,0
2017-06-29T02:24:43.129Z,0
2017-06-29T02:25:43.740Z,0
2017-06-29T02:26:44.353Z,0
2017-06-29T02:27:45.014Z,0
2017-06-29T02:28:45.634Z,0
2017-06-29T02:29:46.242Z,0
2017-06-29T02:30:46.858Z,0
2017-06-29T02:31:47.505Z,0
2017-06-29T02:32:48.202Z,0
2017-06-29T02:33:48.850Z,0
2017-06-29T02:34:49.466Z,0
2017-06-29T02:35:50.111Z,0
2017-06-29T02:36:50.724Z,0
2017-06-29T02:37:51.391Z,0
2017-06-29T02:38:52.005Z,0
2017-06-29T02:39:52.613Z,0
2017-06-29T02:40:53.233Z,0
2017-06-29T02:41:53.841Z,0
2017-06-29T02:42:54.530Z,0
2017-06-29T02:43:55.134Z,0
2017-06-29T02:44:55.741Z,0
2017-06-29T02:45:56.353Z,0
2017-06-29T02:46:56.963Z,0
2017-06-29T02:47:57.650Z,0
2017-06-29T02:48:58.251Z,0
2017-06-29T02:49:58.863Z,0
2017-06-29T02:50:59.500Z,0
2017-06-29T02:52:00.177Z,0
2017-06-29T02:53:00.848Z,0
2017-06-29T02:54:01.446Z,0
2017-06-29T02:55:02.059Z,0
2017-06-29T02:56:02.672Z,0
2017-06-29T02:57:03.283Z,0
2017-06-29T02:58:03.946Z,0
2017-06-29T02:59:04.556Z,0
2017-06-29T03:00:05.202Z,0
2017-06-29T03:01:05.812Z,0
2017-06-29T03:02:06.424Z,0
2017-06-29T03:03:07.090Z,0
2017-06-29T03:04:07.700Z,0
2017-06-29T03:05:08.313Z,0
2017-06-29T03:06:08.960Z,0
2017-06-29T03:07:09.571Z,0
2017-06-29T03:08:10.232Z,0
2017-06-29T03:09:10.845Z,0
2017-06-29T03:10:11.455Z,0
2017-06-29T03:11:12.065Z,0
2017-06-29T03:12:12.679Z,0
2017-06-29T03:13:13.341Z,0
2017-06-29T03:14:13.975Z,0
2017-06-29T03:15:14.574Z,0
2017-06-29T03:16:15.184Z,0
2017-06-29T03:17:15.796Z,0
2017-06-29T03:18:16.459Z,0
2017-06-29T03:19:17.105Z,0
2017-06-29T03:20:17.718Z,0
2017-06-29T03:21:18.352Z,0
2017-06-29T03:22:18.950Z,0
2017-06-29T03:23:19.612Z,0
2017-06-29T03:24:20.255Z,0
2017-06-29T03:25:20.879Z,0
2017-06-29T03:26:21.476Z,0
2017-06-29T03:27:22.089Z,0
2017-06-29T03:28:22.782Z,4
2017-06-29T03:29:23.380Z,0
2017-06-29T03:30:24.027Z,0
2017-06-29T03:31:24.672Z,0
2017-06-29T03:32:25.284Z,0
2017-06-29T03:33:25.948Z,0
2017-06-29T03:34:26.594Z,0
2017-06-29T03:35:27.206Z,4
2017-06-29T03:36:27.817Z,0
2017-06-29T03:37:28.429Z,0
2017-06-29T03:38:29.090Z,4
2017-06-29T03:39:29.703Z,0
2017-06-29T03:40:30.314Z,4
2017-06-29T03:41:30.927Z,0
2017-06-29T03:42:31.543Z,4
2017-06-29T03:43:32.201Z,0
2017-06-29T03:44:32.845Z,4
2017-06-29T03:45:33.489Z,4
2017-06-29T03:46:34.101Z,4
2017-06-29T03:47:34.711Z,8
2017-06-29T03:48:35.372Z,8
2017-06-29T03:49:35.983Z,4
2017-06-29T03:50:36.600Z,8
2017-06-29T03:51:37.212Z,8
2017-06-29T03:52:37.822Z,8
2017-06-29T03:53:38.484Z,8
2017-06-29T03:54:39.095Z,12
2017-06-29T03:55:39.707Z,12
2017-06-29T03:56:40.322Z,12
2017-06-29T03:57:40.937Z,16
2017-06-29T03:58:41.598Z,16
2017-06-29T03:59:42.210Z,20
2017-06-29T04:00:42.822Z,20
2017-06-29T04:01:43.433Z,20
2017-06-29T04:02:44.046Z,24
2017-06-29T04:03:44.710Z,28
2017-06-29T04:04:45.324Z,28
2017-06-29T04:05:45.942Z,28
2017-06-29T04:06:46.550Z,32
2017-06-29T04:07:47.164Z,32
2017-06-29T04:08:47.828Z,32
2017-06-29T04:09:48.479Z,32
2017-06-29T04:10:49.089Z,32
2017-06-29T04:11:49.700Z,32
2017-06-29T04:12:50.314Z,32
2017-06-29T04:13:50.977Z,32
2017-06-29T04:14:51.625Z,32
2017-06-29T04:15:52.264Z,28
2017-06-29T04:16:52.870Z,32
2017-06-29T04:17:53.515Z,28
2017-06-29T04:18:54.203Z,32
2017-06-29T04:19:54.834Z,28
2017-06-29T04:20:55.480Z,28
2017-06-29T04:21:56.095Z,32
2017-06-29T04:22:56.733Z,32
2017-06-29T04:23:57.409Z,32
2017-06-29T04:24:58.032Z,32
2017-06-29T04:25:58.676Z,32
2017-06-29T04:26:59.289Z,32
2017-06-29T04:27:59.931Z,32
2017-06-29T04:29:00.580Z,28
2017-06-29T04:30:01.215Z,32
2017-06-29T04:31:01.816Z,28
2017-06-29T04:32:02.428Z,28
2017-06-29T04:33:03.042Z,28
2017-06-29T04:34:03.743Z,24
2017-06-29T04:35:04.388Z,28
2017-06-29T04:36:05.000Z,28
2017-06-29T04:37:05.611Z,28
2017-06-29T04:38:06.225Z,28
2017-06-29T04:39:06.915Z,32
2017-06-29T04:40:07.514Z,32
2017-06-29T04:41:08.125Z,32
2017-06-29T04:42:08.738Z,36
2017-06-29T04:43:09.384Z,36
2017-06-29T04:44:10.109Z,40
2017-06-29T04:45:10.739Z,40
2017-06-29T04:46:11.337Z,44
2017-06-29T04:47:11.983Z,44
2017-06-29T04:48:12.605Z,44
2017-06-29T04:49:13.302Z,44
2017-06-29T04:50:13.915Z,44
2017-06-29T04:51:14.528Z,44
2017-06-29T04:52:15.139Z,44
2017-06-29T04:53:15.760Z,48
2017-06-29T04:54:16.421Z,48
2017-06-29T04:55:17.035Z,48
2017-06-29T04:56:17.647Z,48
2017-06-29T04:57:18.265Z,48
2017-06-29T04:58:18.874Z,48
2017-06-29T04:59:19.538Z,52
2017-06-29T05:00:20.150Z,52
2017-06-29T05:01:20.763Z,52
2017-06-29T05:02:21.376Z,56
2017-06-29T05:03:21.996Z,56
2017-06-29T05:04:22.693Z,52
2017-06-29T05:05:23.307Z,52
2017-06-29T05:06:23.919Z,48
2017-06-29T05:07:24.531Z,48
2017-06-29T05:08:25.144Z,44
2017-06-29T05:09:25.805Z,44
2017-06-29T05:10:26.420Z,44
2017-06-29T05:11:27.066Z,44
2017-06-29T05:12:27.680Z,48
2017-06-29T05:13:28.296Z,48
2017-06-29T05:14:28.957Z,48
2017-06-29T05:15:29.596Z,48
2017-06-29T05:16:30.230Z,48
2017-06-29T05:17:30.826Z,48
2017-06-29T05:18:31.436Z,48
2017-06-29T05:19:32.105Z,48
2017-06-29T05:20:32.713Z,52
2017-06-29T05:21:33.326Z,60
2017-06-29T05:22:33.938Z,64
2017-06-29T05:23:34.584Z,60
2017-06-29T05:24:35.245Z,64
2017-06-29T05:25:35.860Z,60
2017-06-29T05:26:36.504Z,60
2017-06-29T05:27:37.122Z,60
2017-06-29T05:28:37.733Z,56
2017-06-29T05:29:38.398Z,56
2017-06-29T05:30:39.010Z,56
2017-06-29T05:31:39.648Z,52
2017-06-29T05:32:40.298Z,52
2017-06-29T05:33:40.916Z,52
2017-06-29T05:34:41.576Z,52
2017-06-29T05:35:42.189Z,52
2017-06-29T05:36:42.800Z,56
2017-06-29T05:37:43.422Z,52
2017-06-29T05:38:44.030Z,48
2017-06-29T05:39:44.695Z,48
2017-06-29T05:40:45.306Z,52
2017-06-29T05:41:45.918Z,52
2017-06-29T05:42:46.533Z,52
2017-06-29T05:43:47.208Z,56
2017-06-29T05:44:47.856Z,56
2017-06-29T05:45:48.469Z,52
2017-06-29T05:46:49.082Z,60
2017-06-29T05:47:49.694Z,60
2017-06-29T05:48:50.309Z,60
2017-06-29T05:49:50.975Z,60
2017-06-29T05:50:51.623Z,64
2017-06-29T05:51:52.234Z,60
2017-06-29T05:52:52.847Z,64
2017-06-29T05:53:53.460Z,64
2017-06-29T05:54:54.150Z,64
2017-06-29T05:55:54.755Z,68
2017-06-29T05:56:55.365Z,64
2017-06-29T05:57:55.977Z,64
2017-06-29T05:58:56.597Z,64
2017-06-29T05:59:57.259Z,64
2017-06-29T06:00:57.907Z,68
2017-06-29T06:01:58.520Z,68
2017-06-29T06:02:59.133Z,68
2017-06-29T06:03:59.751Z,68
2017-06-29T06:05:00.410Z,68
2017-06-29T06:06:01.030Z,68
2017-06-29T06:07:01.645Z,72
2017-06-29T06:08:02.254Z,68
2017-06-29T06:09:02.866Z,68
2017-06-29T06:10:03.529Z,68
2017-06-29T06:11:04.144Z,68
2017-06-29T06:12:04.786Z,68
2017-06-29T06:13:05.381Z,68
2017-06-29T06:14:06.028Z,72
2017-06-29T06:15:06.718Z,72
2017-06-29T06:16:07.317Z,72
2017-06-29T06:17:07.930Z,72
2017-06-29T06:18:08.547Z,72
2017-06-29T06:19:09.157Z,72
2017-06-29T06:20:09.823Z,72
2017-06-29T06:21:10.437Z,76
2017-06-29T06:22:11.084Z,76
2017-06-29T06:23:11.730Z,80
2017-06-29T06:24:12.331Z,76
2017-06-29T06:25:12.998Z,80
2017-06-29T06:26:13.637Z,76
2017-06-29T06:27:14.238Z,80
2017-06-29T06:28:14.859Z,80
2017-06-29T06:29:15.471Z,80
2017-06-29T06:30:16.134Z,80
2017-06-29T06:31:16.747Z,80
2017-06-29T06:32:17.362Z,84
2017-06-29T06:33:17.976Z,84
2017-06-29T06:34:18.589Z,84
2017-06-29T06:35:19.253Z,84
2017-06-29T06:36:19.866Z,88
2017-06-29T06:37:20.479Z,88
2017-06-29T06:38:21.101Z,88
2017-06-29T06:39:21.712Z,88
2017-06-29T06:40:22.377Z,88
2017-06-29T06:41:22.996Z,92
2017-06-29T06:42:23.644Z,88
2017-06-29T06:43:24.258Z,92
2017-06-29T06:44:24.875Z,92
2017-06-29T06:45:25.538Z,96
2017-06-29T06:46:26.152Z,100
2017-06-29T06:47:26.795Z,100
2017-06-29T06:48:27.422Z,96
2017-06-29T06:49:28.074Z,100
2017-06-29T06:50:28.764Z,100
2017-06-29T06:51:29.367Z,100
2017-06-29T06:52:30.016Z,96
2017-06-29T06:53:30.632Z,100
2017-06-29T06:54:31.247Z,100
2017-06-29T06:55:31.913Z,100
2017-06-29T06:56:32.526Z,104
2017-06-29T06:57:33.142Z,104
2017-06-29T06:58:33.758Z,104
2017-06-29T06:59:34.398Z,108
2017-06-29T07:00:35.048Z,108
2017-06-29T07:01:35.670Z,108
2017-06-29T07:02:36.283Z,108
2017-06-29T07:03:36.897Z,108
2017-06-29T07:04:37.513Z,108
2017-06-29T07:05:38.177Z,108
2017-06-29T07:06:38.793Z,108
2017-06-29T07:07:39.414Z,108
2017-06-29T07:08:40.032Z,108
2017-06-29T07:09:40.645Z,112
2017-06-29T07:10:41.312Z,108
2017-06-29T07:11:41.927Z,112
2017-06-29T07:12:42.543Z,112
2017-06-29T07:13:43.164Z,116
2017-06-29T07:14:43.778Z,116
2017-06-29T07:15:44.443Z,116
2017-06-29T07:16:45.083Z,120
2017-06-29T07:17:45.685Z,120
2017-06-29T07:18:46.300Z,120
2017-06-29T07:19:46.942Z,124
2017-06-29T07:20:47.622Z,128
2017-06-29T07:21:48.223Z,128
2017-06-29T07:22:48.840Z,124
2017-06-29T07:23:49.482Z,120
2017-06-29T07:24:50.086Z,88
2017-06-29T07:25:50.753Z,128
2017-06-29T07:26:51.369Z,132
2017-06-29T07:27:51.988Z,132
2017-06-29T07:28:52.602Z,132
2017-06-29T07:29:53.218Z,120
2017-06-29T07:30:53.888Z,140
2017-06-29T07:31:54.504Z,136
2017-06-29T07:32:55.120Z,140
2017-06-29T07:33:55.736Z,144
2017-06-29T07:34:56.359Z,148
2017-06-29T07:35:57.023Z,148
2017-06-29T07:36:57.638Z,156
2017-06-29T07:37:58.257Z,160
2017-06-29T07:38:58.885Z,168
2017-06-29T07:39:59.495Z,176
2017-06-29T07:41:00.162Z,188
2017-06-29T07:42:00.779Z,200
2017-06-29T07:43:01.396Z,216
2017-06-29T07:44:02.014Z,216
2017-06-29T07:45:02.656Z,200
2017-06-29T07:46:03.310Z,228
2017-06-29T07:47:03.928Z,224
2017-06-29T07:48:04.579Z,220
2017-06-29T07:49:05.195Z,192
2017-06-29T07:50:05.848Z,156
2017-06-29T07:51:06.516Z,144
2017-06-29T07:52:07.165Z,136
2017-06-29T07:53:07.782Z,144
2017-06-29T07:54:08.409Z,208
2017-06-29T07:55:09.019Z,208
2017-06-29T07:56:09.714Z,216
2017-06-29T07:57:10.315Z,212
2017-06-29T07:58:10.933Z,228
2017-06-29T07:59:11.550Z,228
2017-06-29T08:00:12.169Z,220
2017-06-29T08:01:12.833Z,216
2017-06-29T08:02:13.451Z,132
2017-06-29T08:03:14.067Z,196
2017-06-29T08:04:14.683Z,220
2017-06-29T08:05:15.300Z,224
2017-06-29T08:06:15.971Z,228
2017-06-29T08:07:16.585Z,236
2017-06-29T08:08:17.203Z,248
2017-06-29T08:09:17.818Z,260
2017-06-29T08:10:18.468Z,276
2017-06-29T08:11:19.160Z,264
2017-06-29T08:12:19.765Z,220
2017-06-29T08:13:20.381Z,280
2017-06-29T08:14:20.997Z,272
2017-06-29T08:15:21.618Z,192
2017-06-29T08:16:22.290Z,196
2017-06-29T08:17:22.939Z,304
2017-06-29T08:18:23.556Z,296
2017-06-29T08:19:24.180Z,260
2017-06-29T08:20:24.795Z,180
2017-06-29T08:21:25.465Z,164
2017-06-29T08:22:26.083Z,176
2017-06-29T08:23:26.703Z,196
2017-06-29T08:24:27.326Z,208
2017-06-29T08:25:27.940Z,264
2017-06-29T08:26:28.615Z,196
2017-06-29T08:27:29.232Z,180
2017-06-29T08:28:29.849Z,172
2017-06-29T08:29:30.500Z,172
2017-06-29T08:30:31.145Z,164
2017-06-29T08:31:31.797Z,176
2017-06-29T08:32:32.413Z,168
2017-06-29T08:33:33.031Z,176
2017-06-29T08:34:33.650Z,180
2017-06-29T08:35:34.268Z,184
2017-06-29T08:36:34.934Z,204
2017-06-29T08:37:35.553Z,220
2017-06-29T08:38:36.197Z,352
2017-06-29T08:39:36.806Z,376
2017-06-29T08:40:37.429Z,384
2017-06-29T08:41:38.099Z,300
2017-06-29T08:42:38.713Z,444
2017-06-29T08:43:39.331Z,380
2017-06-29T08:44:39.988Z,396
2017-06-29T08:45:40.601Z,372
2017-06-29T08:46:41.271Z,544
2017-06-29T08:47:41.885Z,424
2017-06-29T08:48:42.511Z,360
2017-06-29T08:49:43.130Z,372
2017-06-29T08:50:43.752Z,384
2017-06-29T08:51:44.414Z,400
2017-06-29T08:52:45.033Z,424
2017-06-29T08:53:45.656Z,444
2017-06-29T08:54:46.270Z,428
2017-06-29T08:55:46.887Z,464
2017-06-29T08:56:47.555Z,620
2017-06-29T08:57:48.175Z,448
2017-06-29T08:58:48.789Z,392
2017-06-29T08:59:49.412Z,368
2017-06-29T09:00:50.034Z,348
2017-06-29T09:01:50.698Z,344
2017-06-29T09:02:51.315Z,340
2017-06-29T09:03:51.934Z,336
2017-06-29T09:04:52.552Z,344
2017-06-29T09:05:53.176Z,344
2017-06-29T09:06:53.839Z,344
2017-06-29T09:07:54.458Z,336
2017-06-29T09:08:55.083Z,324
2017-06-29T09:09:55.697Z,312
2017-06-29T09:10:56.320Z,292
2017-06-29T09:11:56.986Z,288
2017-06-29T09:12:57.602Z,284
2017-06-29T09:13:58.254Z,288
2017-06-29T09:14:58.889Z,288
2017-06-29T09:15:59.490Z,296
2017-06-29T09:17:00.160Z,308
2017-06-29T09:18:00.774Z,328
2017-06-29T09:19:01.393Z,340
2017-06-29T09:20:02.012Z,360
2017-06-29T09:21:02.628Z,372
2017-06-29T09:22:03.330Z,380
2017-06-29T09:23:03.937Z,388
2017-06-29T09:24:04.555Z,408
2017-06-29T09:25:05.172Z,444
2017-06-29T09:26:05.791Z,412
2017-06-29T09:27:06.456Z,404
2017-06-29T09:28:07.074Z,408
2017-06-29T09:29:07.692Z,412
2017-06-29T09:30:08.345Z,412
2017-06-29T09:31:08.944Z,404
2017-06-29T09:32:09.617Z,572
2017-06-29T09:33:10.233Z,384
2017-06-29T09:34:10.852Z,372
2017-06-29T09:35:11.707Z,348
2017-06-29T09:36:12.325Z,340
2017-06-29T09:37:12.992Z,336
2017-06-29T09:38:13.612Z,340
2017-06-29T09:39:14.229Z,364
2017-06-29T09:40:14.848Z,340
2017-06-29T09:41:15.470Z,328
2017-06-29T09:42:16.135Z,312
2017-06-29T09:43:16.753Z,292
2017-06-29T09:44:17.374Z,284
2017-06-29T09:45:17.991Z,292
2017-06-29T09:46:18.641Z,300
2017-06-29T09:47:19.314Z,308
2017-06-29T09:48:19.928Z,316
2017-06-29T09:49:20.556Z,320
2017-06-29T09:50:21.169Z,324
2017-06-29T09:51:21.819Z,328
2017-06-29T09:52:22.501Z,332
2017-06-29T09:53:23.105Z,348
2017-06-29T09:54:23.723Z,364
2017-06-29T09:55:24.402Z,384
2017-06-29T09:56:25.006Z,400
2017-06-29T09:57:25.675Z,408
2017-06-29T09:58:26.291Z,456
2017-06-29T09:59:26.909Z,428
2017-06-29T10:00:27.529Z,440
2017-06-29T10:01:28.150Z,616
2017-06-29T10:02:28.823Z,452
2017-06-29T10:03:29.434Z,360
2017-06-29T10:04:30.053Z,356
2017-06-29T10:05:30.680Z,352
2017-06-29T10:06:31.292Z,352
2017-06-29T10:07:31.959Z,348
2017-06-29T10:08:32.583Z,380
2017-06-29T10:09:33.200Z,348
2017-06-29T10:10:33.816Z,328
2017-06-29T10:11:34.435Z,316
2017-06-29T10:12:35.102Z,304
2017-06-29T10:13:35.721Z,292
2017-06-29T10:14:36.338Z,288
2017-06-29T10:15:36.956Z,284
2017-06-29T10:16:37.600Z,276
2017-06-29T10:17:38.254Z,256
2017-06-29T10:18:38.870Z,244
2017-06-29T10:19:39.488Z,236
2017-06-29T10:20:40.108Z,224
2017-06-29T10:21:40.756Z,216
2017-06-29T10:22:41.408Z,204
2017-06-29T10:23:42.026Z,196
2017-06-29T10:24:42.710Z,196
2017-06-29T10:25:43.360Z,200
2017-06-29T10:26:43.979Z,200
2017-06-29T10:27:44.648Z,200
2017-06-29T10:28:45.292Z,200
2017-06-29T10:29:45.896Z,200
2017-06-29T10:30:46.520Z,196
2017-06-29T10:31:47.173Z,192
2017-06-29T10:32:47.847Z,200
2017-06-29T10:33:48.461Z,208
2017-06-29T10:34:49.084Z,220
2017-06-29T10:35:49.698Z,228
2017-06-29T10:36:50.321Z,224
2017-06-29T10:37:51.025Z,224
2017-06-29T10:38:51.642Z,224
2017-06-29T10:39:52.259Z,240
2017-06-29T10:40:52.909Z,252
2017-06-29T10:41:53.526Z,256
2017-06-29T10:42:54.195Z,256
2017-06-29T10:43:54.812Z,256
2017-06-29T10:44:55.470Z,256
2017-06-29T10:45:56.084Z,248
2017-06-29T10:46:56.701Z,240
2017-06-29T10:47:57.369Z,236
2017-06-29T10:48:58.017Z,232
2017-06-29T10:49:58.622Z,236
2017-06-29T10:50:59.240Z,236
2017-06-29T10:51:59.899Z,232
2017-06-29T10:53:00.542Z,236
2017-06-29T10:54:01.159Z,240
2017-06-29T10:55:01.808Z,244
2017-06-29T10:56:02.410Z,260
2017-06-29T10:57:03.026Z,280
2017-06-29T10:58:03.693Z,288
2017-06-29T10:59:04.313Z,284
2017-06-29T11:00:04.931Z,280
2017-06-29T11:01:05.608Z,280
2017-06-29T11:02:06.213Z,272
2017-06-29T11:03:06.904Z,268
2017-06-29T11:04:07.510Z,252
2017-06-29T11:05:08.134Z,236
2017-06-29T11:06:08.748Z,228
2017-06-29T11:07:09.427Z,224
2017-06-29T11:08:10.081Z,220
2017-06-29T11:09:10.697Z,216
2017-06-29T11:10:11.319Z,212
2017-06-29T11:11:11.961Z,204
2017-06-29T11:12:12.565Z,204
2017-06-29T11:13:13.233Z,212
2017-06-29T11:14:13.852Z,224
2017-06-29T11:15:14.501Z,240
2017-06-29T11:16:15.118Z,256
2017-06-29T11:17:15.734Z,264
2017-06-29T11:18:16.405Z,268
2017-06-29T11:19:17.083Z,268
2017-06-29T11:20:17.687Z,268
2017-06-29T11:21:18.338Z,264
2017-06-29T11:22:18.958Z,260
2017-06-29T11:23:19.624Z,268
2017-06-29T11:24:20.242Z,284
2017-06-29T11:25:20.860Z,304
2017-06-29T11:26:21.483Z,304
2017-06-29T11:27:22.099Z,300
2017-06-29T11:28:22.816Z,316
2017-06-29T11:29:23.436Z,316
2017-06-29T11:30:24.094Z,304
2017-06-29T11:31:24.708Z,300
2017-06-29T11:32:25.327Z,296
2017-06-29T11:33:25.999Z,284
2017-06-29T11:34:26.615Z,256
2017-06-29T11:35:27.232Z,240
2017-06-29T11:36:27.850Z,232
2017-06-29T11:37:28.495Z,220
2017-06-29T11:38:29.147Z,208
2017-06-29T11:39:29.796Z,192
2017-06-29T11:40:30.414Z,172
2017-06-29T11:41:31.056Z,160
2017-06-29T11:42:31.660Z,148
2017-06-29T11:43:32.329Z,140
2017-06-29T11:44:32.978Z,132
2017-06-29T11:45:33.578Z,120
2017-06-29T11:46:34.196Z,116
2017-06-29T11:47:34.812Z,112
2017-06-29T11:48:35.481Z,112
2017-06-29T11:49:36.099Z,120
2017-06-29T11:50:36.749Z,132
2017-06-29T11:51:37.370Z,148
2017-06-29T11:52:37.988Z,172
2017-06-29T11:53:38.654Z,204
2017-06-29T11:54:39.272Z,236
2017-06-29T11:55:39.888Z,260
2017-06-29T11:56:40.503Z,272
2017-06-29T11:57:41.124Z,268
2017-06-29T11:58:41.790Z,272
2017-06-29T11:59:42.407Z,284
2017-06-29T12:00:43.024Z,288
2017-06-29T12:01:43.642Z,284
2017-06-29T12:02:44.300Z,288
2017-06-29T12:03:44.963Z,312
2017-06-29T12:04:45.579Z,360
2017-06-29T12:05:46.199Z,496
2017-06-29T12:06:46.822Z,648
2017-06-29T12:07:47.437Z,412
2017-06-29T12:08:48.103Z,384
2017-06-29T12:09:48.724Z,384
2017-06-29T12:10:49.375Z,548
2017-06-29T12:11:49.992Z,416
2017-06-29T12:12:50.637Z,432
2017-06-29T12:13:51.320Z,392
2017-06-29T12:14:51.923Z,428
2017-06-29T12:15:52.543Z,432
2017-06-29T12:16:53.162Z,432
2017-06-29T12:17:53.802Z,468
2017-06-29T12:18:54.461Z,544
2017-06-29T12:19:55.110Z,640
2017-06-29T12:20:55.728Z,708
2017-06-29T12:21:56.353Z,740
2017-06-29T12:22:56.967Z,524
2017-06-29T12:23:57.638Z,504
2017-06-29T12:24:58.255Z,520
2017-06-29T12:25:58.878Z,540
2017-06-29T12:26:59.493Z,592
2017-06-29T12:28:00.118Z,600
2017-06-29T12:29:00.781Z,564
2017-06-29T12:30:01.400Z,604
2017-06-29T12:31:02.016Z,524
2017-06-29T12:32:02.636Z,460
2017-06-29T12:33:03.261Z,412
2017-06-29T12:34:03.923Z,376
2017-06-29T12:35:04.546Z,340
2017-06-29T12:36:05.164Z,320
2017-06-29T12:37:05.843Z,316
2017-06-29T12:38:06.445Z,316
2017-06-29T12:39:07.112Z,328
2017-06-29T12:40:07.761Z,336
2017-06-29T12:41:08.363Z,348
2017-06-29T12:42:09.014Z,336
2017-06-29T12:43:09.694Z,320
2017-06-29T12:44:10.347Z,316
2017-06-29T12:45:11.001Z,320
2017-06-29T12:46:11.603Z,292
2017-06-29T12:47:12.218Z,252
2017-06-29T12:48:12.842Z,236
2017-06-29T12:49:13.511Z,240
2017-06-29T12:50:14.152Z,252
2017-06-29T12:51:14.757Z,260
2017-06-29T12:52:15.400Z,268
2017-06-29T12:53:16.007Z,268
2017-06-29T12:54:16.699Z,264
2017-06-29T12:55:17.303Z,272
2017-06-29T12:56:17.927Z,276
2017-06-29T12:57:18.542Z,276
2017-06-29T12:58:19.163Z,284
2017-06-29T12:59:19.832Z,296
2017-06-29T13:00:20.486Z,312
2017-06-29T13:01:21.110Z,328
2017-06-29T13:02:21.721Z,336
2017-06-29T13:03:22.346Z,348
2017-06-29T13:04:23.010Z,344
2017-06-29T13:05:23.627Z,344
2017-06-29T13:06:24.269Z,360
2017-06-29T13:07:24.876Z,384
2017-06-29T13:08:25.495Z,392
2017-06-29T13:09:26.197Z,376
2017-06-29T13:10:26.817Z,356
2017-06-29T13:11:27.437Z,336
2017-06-29T13:12:28.056Z,308
2017-06-29T13:13:28.671Z,264
2017-06-29T13:14:29.389Z,212
2017-06-29T13:15:30.008Z,184
2017-06-29T13:16:30.635Z,180
2017-06-29T13:17:31.251Z,200
2017-06-29T13:18:31.874Z,216
2017-06-29T13:19:32.548Z,224
2017-06-29T13:20:33.187Z,240
2017-06-29T13:21:33.792Z,240
2017-06-29T13:22:34.409Z,216
2017-06-29T13:23:35.032Z,188
2017-06-29T13:24:35.698Z,168
2017-06-29T13:25:36.351Z,148
2017-06-29T13:26:36.969Z,132
2017-06-29T13:27:37.591Z,128
2017-06-29T13:28:38.209Z,124
2017-06-29T13:29:39.078Z,116
2017-06-29T13:30:39.694Z,112
2017-06-29T13:31:40.338Z,104
2017-06-29T13:32:40.942Z,100
2017-06-29T13:33:41.557Z,96
2017-06-29T13:34:42.221Z,100
2017-06-29T13:35:42.837Z,96
2017-06-29T13:36:43.484Z,96
2017-06-29T13:37:44.108Z,88
2017-06-29T13:38:44.756Z,80
2017-06-29T13:39:45.422Z,72
2017-06-29T13:40:46.037Z,68
2017-06-29T13:41:46.653Z,68
2017-06-29T13:42:47.268Z,64
2017-06-29T13:43:47.882Z,64
2017-06-29T13:44:48.551Z,64
2017-06-29T13:45:49.165Z,64
2017-06-29T13:46:49.783Z,60
2017-06-29T13:47:50.430Z,60
2017-06-29T13:48:51.051Z,56
2017-06-29T13:49:51.712Z,52
2017-06-29T13:50:52.326Z,52
2017-06-29T13:51:52.939Z,56
2017-06-29T13:52:53.588Z,64
2017-06-29T13:53:54.202Z,72
2017-06-29T13:54:54.872Z,84
2017-06-29T13:55:55.484Z,96
2017-06-29T13:56:56.102Z,116
2017-06-29T13:57:56.717Z,128
2017-06-29T13:58:57.333Z,144
2017-06-29T13:59:57.999Z,156
2017-06-29T14:00:58.614Z,176
2017-06-29T14:01:59.233Z,196
2017-06-29T14:02:59.850Z,212
2017-06-29T14:04:00.465Z,228
2017-06-29T14:05:01.159Z,232
2017-06-29T14:06:01.763Z,228
2017-06-29T14:07:02.380Z,228
2017-06-29T14:08:03.000Z,228
2017-06-29T14:09:03.615Z,228
2017-06-29T14:10:04.281Z,220
2017-06-29T14:11:04.898Z,212
2017-06-29T14:12:05.513Z,196
2017-06-29T14:13:06.131Z,180
2017-06-29T14:14:06.752Z,172
2017-06-29T14:15:07.450Z,176
2017-06-29T14:16:08.082Z,192
2017-06-29T14:17:08.683Z,208